• Join FlightAware (Why Join?)
  • Login
  • US Flag 
03:52AM EDT


 

Airport Tracker/Info


-or-


 

Live Flight TrackerFlight Track Log ✈ COA9990 ✈ 30-Sep-2011 ✈ KMCO - KMCO

Flight Track Log - Related Links

Times and Time Zones

All times are in EDT time to prevent confusion due to time zone crossing. See the COA9990 flight status page for this flight to view local times or setup timezone preferences in your user account.

Time Position Orientation Groundspeed Altitude Reporting Facility
EDT Latitude Longitude Course Direction KTS MPH feet Rate Location/Type
10:47AM 28.1550 -81.4297 200° South 295 339 14,700  Level Miami Center
10:48AM 28.0767 -81.4617 199° South 309 356 15,000 120 Climbing Miami Center
10:49AM 27.9964 -81.4936 201° Southwest 309 356 15,000 -60 Level Miami Center
10:50AM 27.9203 -81.5258 197° South 304 350 14,900  Descending Miami Center
10:51AM 27.8419 -81.5531 159° South 304 350 15,000  Climbing Miami Center
10:52AM 27.7639 -81.5194 156° South 286 329 14,900 -60 Descending Miami Center
10:53AM 27.6919 -81.4836 159° South 291 335 14,900  Level Miami Center
10:54AM 27.6136 -81.4500 245° Southwest 305 351 14,900  Level Miami Center
10:55AM 27.5797 -81.5331 272° West 224 258 14,900  Level Miami Center
10:56AM 27.5828 -81.6314 269° West 242 278 15,000  Climbing Miami Center
10:57AM 27.5814 -81.7392 271° West 280 322 15,000  Level Miami Center
10:58AM 27.5828 -81.8142 273° West 269 310 15,000 -60 Level Miami Center
10:59AM 27.5853 -81.8681 273° West 219 252 14,900 -60 Descending Miami Center
11:00AM 27.5878 -81.9175 303° West 184 212 14,900  Level Miami Center
11:01AM 27.6153 -81.9656 27° Northeast 171 197 14,900  Level Miami Center
11:02AM 27.6961 -81.9200 41° Northeast 205 236 15,000  Climbing Miami Center
11:03AM 27.7739 -81.8436 32° Northeast 269 310 14,900 -720 Descending Miami Center
11:04AM 27.8833 -81.7667 16° North 370 426 13,500 -1,140 Descending Orlando TRACON
11:05AM 27.9333 -81.7500 360° North 356 410 13,000 -360 Descending Orlando TRACON
11:06AM 28.0167 -81.7500 24° Northeast 356 410 13,000 -660 Level Orlando TRACON
11:07AM 28.1167 -81.7000 66° East 358 412 11,700 -1,200 Descending Orlando TRACON
11:08AM 28.1500 -81.6167 56° Northeast 322 371 10,700 -1,320 Descending Orlando TRACON
11:09AM 28.2000 -81.5333 41° Northeast 301 346 9,100 -900 Descending Orlando TRACON
11:10AM 28.2667 -81.4667 24° Northeast 293 337 9,000 -60 Descending Orlando TRACON
11:11AM 28.3333 -81.4333 360° North 250 288 9,000  Level Orlando TRACON
11:12AM 28.4000 -81.4333 12° North 243 280 9,000 -540 Level Orlando TRACON
11:13AM 28.4667 -81.4167 360° North 238 274 8,000 -1,380 Descending Orlando TRACON
11:14AM 28.5167 -81.4167 24° Northeast 232 267 6,300 -1,920 Descending Orlando TRACON
11:15AM 28.5833 -81.3833 90° East 237 273 4,200 -1,980 Descending Orlando TRACON
11:16AM 28.5833 -81.3333 180° South 193 222 2,400 -1,080 Descending Orlando TRACON
11:17AM 28.5333 -81.3333 180° South 168 193 2,100 -720 Descending Orlando TRACON
11:18AM 28.4833 -81.3333 180° South 151 174 1,000 -1,140 Descending Orlando TRACON